Chard, United Kingdom
Current Conditions -  °F | °C
As of 12:50 PM on Thursday 23 Oct 2014 (Local Time) from EGDY Reporting Station
Overcast Overcast  
Wind Chill: 61°   Ceiling: 1400
Heat Index: 61°   Visibility: 6mi
Dew Point: 55°   Wind: 13mph
Humidity: 82%   Direction: 210°SSW
Pressure: 30.09"   Gusts: NA
Location:  50.87°N, 2.97°W
Report Text: EGDY 231150Z 21011KT 9999 BKN014 OVC030 16/13 Q1019 GRN NOSIG
Loading
Personal Weather Stations






























Interactive Weather Map
Tropical Storm Tracking
New forecast layout! Learn more

10-Day Weather Forecast

Advertisements
Track Severe Weather on mobile